^^
Station Historical Data
Daily Summary for June 19, 2017 Units:  Both    English   Metric
« Previous Day
Next Day »
Daily Weekly Monthly Yearly Custom
  High: Low: Average:
Temperature: 73.2 °F /  22.9 °C 50.5 °F /  10.3 °C 60.6 °F /  15.9 °C
Dew Point: 41.4 °F /  5.2 °C 36.0 °F /  2.2 °C 38 °F /  3.3 °C
Humidity: 59% 30% 44%
Wind Speed: 6.9mph /  11.1km/h - 0.5mph /  0.8km/h
Wind Gust: 10.0mph /  16.1km/h - -
Wind- - WSW
Pressure: 30.32 in /  1026.6 hPa 30.21 in /  1022.9 hPa -
Precipitation: 0.00 in /  0 mm    
Historical Graphs
 
 
Tabular Data for June 19, 2017
Time Temperature Dew Point Pressure Wind Wind Speed Wind Gust Humidity Rainfall Rate (Hourly) solar Conditions
00:04 57.9 °F /  14.4 °C 37.8 °F /  3.2 °C 30.28in /  1025.3hPa Calm   1.0mph /  1.6km/h 47% 0.00in /  0mm 0.0 W/m2
00:10 57.7 °F /  14.3 °C 37.6 °F /  3.1 °C 30.28in /  1025.3hPa Calm     47% 0.00in /  0mm 0.0 W/m2
00:16 57.7 °F /  14.3 °C 37.6 °F /  3.1 °C 30.28in /  1025.3hPa Calm     47% 0.00in /  0mm 0.0 W/m2
00:22 57.7 °F /  14.3 °C 37.6 °F /  3.1 °C 30.28in /  1025.3hPa Calm   2.0mph /  3.2km/h 47% 0.00in /  0mm 0.0 W/m2
00:28 57.9 °F /  14.4 °C 37.2 °F /  2.9 °C 30.28in /  1025.3hPa Calm     46% 0.00in /  0mm 0.0 W/m2
00:34 57.9 °F /  14.4 °C 37.8 °F /  3.2 °C 30.28in /  1025.3hPa Calm     47% 0.00in /  0mm 0.0 W/m2
00:41 57.9 °F /  14.4 °C 37.8 °F /  3.2 °C 30.28in /  1025.3hPa Calm     47% 0.00in /  0mm 0.0 W/m2
00:47 57.9 °F /  14.4 °C 37.2 °F /  2.9 °C 30.28in /  1025.3hPa Calm     46% 0.00in /  0mm 0.0 W/m2
00:53 57.7 °F /  14.3 °C 37.0 °F /  2.8 °C 30.28in /  1025.3hPa Calm     46% 0.00in /  0mm 0.0 W/m2
00:59 57.6 °F /  14.2 °C 37.4 °F /  3 °C 30.28in /  1025.3hPa Calm     47% 0.00in /  0mm 0.0 W/m2
01:05 57.4 °F /  14.1 °C 37.9 °F /  3.3 °C 30.28in /  1025.3hPa Calm     48% 0.00in /  0mm 0.0 W/m2
01:11 56.8 °F /  13.8 °C 37.4 °F /  3 °C 30.28in /  1025.3hPa Calm     48% 0.00in /  0mm 0.0 W/m2
01:17 56.7 °F /  13.7 °C 37.2 °F /  2.9 °C 30.28in /  1025.3hPa Calm     48% 0.00in /  0mm 0.0 W/m2
01:24 56.3 °F /  13.5 °C 37.4 °F /  3 °C 30.28in /  1025.3hPa Calm     49% 0.00in /  0mm 0.0 W/m2
01:30 55.9 °F /  13.3 °C 37.0 °F /  2.8 °C 30.28in /  1025.3hPa Calm     49% 0.00in /  0mm 0.0 W/m2
01:36 55.8 °F /  13.2 °C 36.9 °F /  2.7 °C 30.28in /  1025.3hPa Calm     49% 0.00in /  0mm 0.0 W/m2
01:42 55.4 °F /  13 °C 37.0 °F /  2.8 °C 30.28in /  1025.3hPa Calm     50% 0.00in /  0mm 0.0 W/m2
01:48 55.2 °F /  12.9 °C 37.4 °F /  3 °C 30.28in /  1025.3hPa Calm     51% 0.00in /  0mm 0.0 W/m2
01:54 55.0 °F /  12.8 °C 37.2 °F /  2.9 °C 30.28in /  1025.3hPa Calm     51% 0.00in /  0mm 0.0 W/m2
02:00 54.9 °F /  12.7 °C 37.0 °F /  2.8 °C 30.28in /  1025.3hPa Calm     51% 0.00in /  0mm 0.0 W/m2
02:07 54.9 °F /  12.7 °C 37.6 °F /  3.1 °C 30.28in /  1025.3hPa Calm     52% 0.00in /  0mm 0.0 W/m2
02:13 54.9 °F /  12.7 °C 37.6 °F /  3.1 °C 30.28in /  1025.3hPa Calm     52% 0.00in /  0mm 0.0 W/m2
02:19 54.9 °F /  12.7 °C 37.0 °F /  2.8 °C 30.28in /  1025.3hPa Calm     51% 0.00in /  0mm 0.0 W/m2
02:25 54.9 °F /  12.7 °C 38.1 °F /  3.4 °C 30.28in /  1025.3hPa Calm     53% 0.00in /  0mm 0.0 W/m2
02:31 55.0 °F /  12.8 °C 37.2 °F /  2.9 °C 30.28in /  1025.3hPa Calm     51% 0.00in /  0mm 0.0 W/m2
02:37 55.0 °F /  12.8 °C 37.2 °F /  2.9 °C 30.27in /  1024.9hPa Calm     51% 0.00in /  0mm 0.0 W/m2
02:43 55.0 °F /  12.8 °C 36.7 °F /  2.6 °C 30.27in /  1024.9hPa Calm     50% 0.00in /  0mm 0.0 W/m2
02:49 55.2 °F /  12.9 °C 36.9 °F /  2.7 °C 30.27in /  1024.9hPa Calm     50% 0.00in /  0mm 0.0 W/m2
02:56 55.2 °F /  12.9 °C 36.9 °F /  2.7 °C 30.27in /  1024.9hPa Calm     50% 0.00in /  0mm 0.0 W/m2
03:02 55.2 °F /  12.9 °C 37.4 °F /  3 °C 30.27in /  1024.9hPa Calm     51% 0.00in /  0mm 0.0 W/m2
03:08 55.0 °F /  12.8 °C 37.2 °F /  2.9 °C 30.27in /  1024.9hPa Calm     51% 0.00in /  0mm 0.0 W/m2
03:14 55.0 °F /  12.8 °C 37.2 °F /  2.9 °C 30.27in /  1024.9hPa Calm     51% 0.00in /  0mm 0.0 W/m2
03:20 55.0 °F /  12.8 °C 37.2 °F /  2.9 °C 30.27in /  1024.9hPa Calm     51% 0.00in /  0mm 0.0 W/m2
03:26 54.9 °F /  12.7 °C 36.5 °F /  2.5 °C 30.27in /  1024.9hPa Calm     50% 0.00in /  0mm 0.0 W/m2
03:32 54.9 °F /  12.7 °C 37.0 °F /  2.8 °C 30.27in /  1024.9hPa Calm     51% 0.00in /  0mm 0.0 W/m2
03:39 54.9 °F /  12.7 °C 36.5 °F /  2.5 °C 30.27in /  1024.9hPa Calm   1.0mph /  1.6km/h 50% 0.00in /  0mm 0.0 W/m2
03:45 54.9 °F /  12.7 °C 37.0 °F /  2.8 °C 30.27in /  1024.9hPa Calm     51% 0.00in /  0mm 0.0 W/m2
03:51 55.0 °F /  12.8 °C 37.2 °F /  2.9 °C 30.27in /  1024.9hPa Calm   1.0mph /  1.6km/h 51% 0.00in /  0mm 0.0 W/m2
03:57 55.0 °F /  12.8 °C 36.7 °F /  2.6 °C 30.27in /  1024.9hPa Calm   1.0mph /  1.6km/h 50% 0.00in /  0mm 0.0 W/m2
04:03 55.2 °F /  12.9 °C 36.9 °F /  2.7 °C 30.27in /  1024.9hPa Calm   1.0mph /  1.6km/h 50% 0.00in /  0mm 0.0 W/m2
04:09 55.4 °F /  13 °C 37.0 °F /  2.8 °C 30.27in /  1024.9hPa Calm     50% 0.00in /  0mm 0.0 W/m2
04:15 55.6 °F /  13.1 °C 37.2 °F /  2.9 °C 30.27in /  1024.9hPa Calm     50% 0.00in /  0mm 0.0 W/m2
04:22 55.6 °F /  13.1 °C 37.2 °F /  2.9 °C 30.27in /  1024.9hPa Calm   2.0mph /  3.2km/h 50% 0.00in /  0mm 0.0 W/m2
04:28 55.4 °F /  13 °C 37.0 °F /  2.8 °C 30.27in /  1024.9hPa Calm     50% 0.00in /  0mm 0.0 W/m2
04:34 55.6 °F /  13.1 °C 37.2 °F /  2.9 °C 30.27in /  1024.9hPa Calm   1.0mph /  1.6km/h 50% 0.00in /  0mm 0.0 W/m2
04:40 55.6 °F /  13.1 °C 37.2 °F /  2.9 °C 30.27in /  1024.9hPa Calm     50% 0.00in /  0mm 0.0 W/m2
04:46 55.4 °F /  13 °C 37.0 °F /  2.8 °C 30.27in /  1024.9hPa Calm     50% 0.00in /  0mm 0.0 W/m2
04:52 55.4 °F /  13 °C 37.0 °F /  2.8 °C 30.27in /  1024.9hPa Calm   1.0mph /  1.6km/h 50% 0.00in /  0mm 0.0 W/m2
04:59 55.4 °F /  13 °C 37.0 °F /  2.8 °C 30.27in /  1024.9hPa Calm   1.0mph /  1.6km/h 50% 0.00in /  0mm 0.0 W/m2
05:05 55.4 °F /  13 °C 37.0 °F /  2.8 °C 30.27in /  1024.9hPa Calm     50% 0.00in /  0mm 0.0 W/m2
05:11 55.2 °F /  12.9 °C 36.9 °F /  2.7 °C 30.28in /  1025.3hPa Calm     50% 0.00in /  0mm 0.0 W/m2
05:17 55.0 °F /  12.8 °C 36.7 °F /  2.6 °C 30.28in /  1025.3hPa Calm     50% 0.00in /  0mm 0.0 W/m2
05:23 54.9 °F /  12.7 °C 36.5 °F /  2.5 °C 30.28in /  1025.3hPa Calm     50% 0.00in /  0mm 0.0 W/m2
05:29 54.7 °F /  12.6 °C 36.9 °F /  2.7 °C 30.28in /  1025.3hPa Calm   1.0mph /  1.6km/h 51% 0.00in /  0mm 0.0 W/m2
05:35 54.3 °F /  12.4 °C 36.5 °F /  2.5 °C 30.28in /  1025.3hPa Calm   1.0mph /  1.6km/h 51% 0.00in /  0mm 0.0 W/m2
05:42 54.0 °F /  12.2 °C 36.3 °F /  2.4 °C 30.28in /  1025.3hPa Calm     51% 0.00in /  0mm 0.0 W/m2
05:48 53.6 °F /  12 °C 36.3 °F /  2.4 °C 30.29in /  1025.6hPa Calm     52% 0.00in /  0mm 0.0 W/m2
05:54 53.2 °F /  11.8 °C 36.5 °F /  2.5 °C 30.29in /  1025.6hPa Calm     53% 0.00in /  0mm 0.0 W/m2
06:00 52.9 °F /  11.6 °C 36.1 °F /  2.3 °C 30.29in /  1025.6hPa Calm   2.0mph /  3.2km/h 53% 0.00in /  0mm 0.0 W/m2
06:12 52.3 °F /  11.3 °C 36.7 °F /  2.6 °C 30.29in /  1025.6hPa Calm     55% 0.00in /  0mm 0.0 W/m2
06:18 52.2 °F /  11.2 °C 36.5 °F /  2.5 °C 30.30in /  1026hPa Calm     55% 0.00in /  0mm 0.0 W/m2
06:25 52.0 °F /  11.1 °C 36.3 °F /  2.4 °C 30.30in /  1026hPa Calm     55% 0.00in /  0mm 0.0 W/m2
06:31 52.0 °F /  11.1 °C 36.3 °F /  2.4 °C 30.30in /  1026hPa Calm     55% 0.00in /  0mm 0.0 W/m2
06:37 51.8 °F /  11 °C 36.1 °F /  2.3 °C 30.30in /  1026hPa Calm     55% 0.00in /  0mm 5.0 W/m2
06:43 51.6 °F /  10.9 °C 36.0 °F /  2.2 °C 30.30in /  1026hPa Calm   1.0mph /  1.6km/h 55% 0.00in /  0mm 11.0 W/m2
06:49 51.8 °F /  11 °C 36.1 °F /  2.3 °C 30.30in /  1026hPa Calm   1.0mph /  1.6km/h 55% 0.00in /  0mm 14.0 W/m2
06:55 52.0 °F /  11.1 °C 36.3 °F /  2.4 °C 30.30in /  1026hPa Calm     55% 0.00in /  0mm 18.0 W/m2
07:01 52.2 °F /  11.2 °C 36.5 °F /  2.5 °C 30.31in /  1026.3hPa Calm     55% 0.00in /  0mm 21.0 W/m2
07:08 52.5 °F /  11.4 °C 36.3 °F /  2.4 °C 30.31in /  1026.3hPa Calm     54% 0.00in /  0mm 25.0 W/m2
07:14 52.9 °F /  11.6 °C 36.7 °F /  2.6 °C 30.31in /  1026.3hPa Calm     54% 0.00in /  0mm 26.0 W/m2
07:20 53.2 °F /  11.8 °C 37.0 °F /  2.8 °C 30.31in /  1026.3hPa Calm     54% 0.00in /  0mm 32.0 W/m2
07:26 53.2 °F /  11.8 °C 37.0 °F /  2.8 °C 30.31in /  1026.3hPa Calm     54% 0.00in /  0mm 33.0 W/m2
07:32 53.4 °F /  11.9 °C 37.2 °F /  2.9 °C 30.31in /  1026.3hPa Calm     54% 0.00in /  0mm 32.0 W/m2
07:38 53.4 °F /  11.9 °C 37.6 °F /  3.1 °C 30.31in /  1026.3hPa Calm     55% 0.00in /  0mm 30.0 W/m2
07:45 53.4 °F /  11.9 °C 37.6 °F /  3.1 °C 30.31in /  1026.3hPa Calm     55% 0.00in /  0mm 32.0 W/m2
07:51 53.4 °F /  11.9 °C 37.2 °F /  2.9 °C 30.32in /  1026.6hPa Calm     54% 0.00in /  0mm 44.0 W/m2
07:57 53.8 °F /  12.1 °C 37.6 °F /  3.1 °C 30.32in /  1026.6hPa Calm     54% 0.00in /  0mm 211.0 W/m2
08:03 54.5 °F /  12.5 °C 37.8 °F /  3.2 °C 30.32in /  1026.6hPa Calm     53% 0.00in /  0mm 216.0 W/m2
08:09 55.2 °F /  12.9 °C 37.9 °F /  3.3 °C 30.32in /  1026.6hPa Calm     52% 0.00in /  0mm 155.0 W/m2
08:15 56.1 °F /  13.4 °C 38.3 °F /  3.5 °C 30.32in /  1026.6hPa Calm     51% 0.00in /  0mm 297.0 W/m2
08:21 57.4 °F /  14.1 °C 38.3 °F /  3.5 °C 30.32in /  1026.6hPa Calm   2.0mph /  3.2km/h 49% 0.00in /  0mm 311.0 W/m2
08:28 59.0 °F /  15 °C 37.8 °F /  3.2 °C 30.32in /  1026.6hPa Calm     45% 0.00in /  0mm 332.0 W/m2
08:34 60.6 °F /  15.9 °C 37.4 °F /  3 °C 30.32in /  1026.6hPa Calm   1.0mph /  1.6km/h 42% 0.00in /  0mm 357.0 W/m2
08:40 62.4 °F /  16.9 °C 37.2 °F /  2.9 °C 30.32in /  1026.6hPa Calm     39% 0.00in /  0mm 385.0 W/m2
08:46 63.5 °F /  17.5 °C 38.1 °F /  3.4 °C 30.32in /  1026.6hPa Calm     39% 0.00in /  0mm 431.0 W/m2
08:52 64.4 °F /  18 °C 37.6 °F /  3.1 °C 30.32in /  1026.6hPa Calm   4.0mph /  6.4km/h 37% 0.00in /  0mm 482.0 W/m2
08:58 65.5 °F /  18.6 °C 37.8 °F /  3.2 °C 30.32in /  1026.6hPa NNW 4.0mph /  6.4km/h 4.0mph /  6.4km/h 36% 0.00in /  0mm 497.0 W/m2
09:05 65.5 °F /  18.6 °C 37.8 °F /  3.2 °C 30.32in /  1026.6hPa North 0.9mph /  1.4km/h 4.0mph /  6.4km/h 36% 0.00in /  0mm 316.0 W/m2
09:11 65.5 °F /  18.6 °C 37.8 °F /  3.2 °C 30.32in /  1026.6hPa NW 2.9mph /  4.7km/h 6.0mph /  9.7km/h 36% 0.00in /  0mm 464.0 W/m2
09:17 65.7 °F /  18.7 °C 37.9 °F /  3.3 °C 30.32in /  1026.6hPa NW 0.9mph /  1.4km/h 3.0mph /  4.8km/h 36% 0.00in /  0mm 455.0 W/m2
09:23 66.0 °F /  18.9 °C 37.6 °F /  3.1 °C 30.32in /  1026.6hPa NNW 2.9mph /  4.7km/h 5.0mph /  8km/h 35% 0.00in /  0mm 506.0 W/m2
09:29 66.6 °F /  19.2 °C 38.1 °F /  3.4 °C 30.32in /  1026.6hPa NNW 4.9mph /  7.9km/h 9.0mph /  14.5km/h 35% 0.00in /  0mm 517.0 W/m2
09:35 66.9 °F /  19.4 °C 38.3 °F /  3.5 °C 30.32in /  1026.6hPa Calm   5.0mph /  8km/h 35% 0.00in /  0mm 547.0 W/m2
09:41 67.5 °F /  19.7 °C 38.1 °F /  3.4 °C 30.32in /  1026.6hPa Calm   9.0mph /  14.5km/h 34% 0.00in /  0mm 555.0 W/m2
09:47 67.8 °F /  19.9 °C 38.5 °F /  3.6 °C 30.32in /  1026.6hPa Calm   4.0mph /  6.4km/h 34% 0.00in /  0mm 563.0 W/m2
09:53 68.4 °F /  20.2 °C 38.8 °F /  3.8 °C 30.32in /  1026.6hPa NW 4.0mph /  6.4km/h 7.0mph /  11.3km/h 34% 0.00in /  0mm 540.0 W/m2
10:00 68.5 °F /  20.3 °C 39.0 °F /  3.9 °C 30.32in /  1026.6hPa Calm   1.0mph /  1.6km/h 34% 0.00in /  0mm 564.0 W/m2
10:06 68.7 °F /  20.4 °C 39.2 °F /  4 °C 30.32in /  1026.6hPa Calm   5.0mph /  8km/h 34% 0.00in /  0mm 571.0 W/m2
10:12 68.7 °F /  20.4 °C 38.5 °F /  3.6 °C 30.32in /  1026.6hPa North 0.9mph /  1.4km/h 10.0mph /  16.1km/h 33% 0.00in /  0mm 580.0 W/m2
10:18 68.7 °F /  20.4 °C 39.2 °F /  4 °C 30.31in /  1026.3hPa Calm   2.0mph /  3.2km/h 34% 0.00in /  0mm 594.0 W/m2
10:24 69.3 °F /  20.7 °C 38.8 °F /  3.8 °C 30.31in /  1026.3hPa NNW 2.0mph /  3.2km/h 4.0mph /  6.4km/h 33% 0.00in /  0mm 601.0 W/m2
10:30 69.4 °F /  20.8 °C 39.0 °F /  3.9 °C 30.30in /  1026hPa Calm   4.0mph /  6.4km/h 33% 0.00in /  0mm 608.0 W/m2
10:36 69.6 °F /  20.9 °C 39.2 °F /  4 °C 30.30in /  1026hPa NNE 4.0mph /  6.4km/h 4.0mph /  6.4km/h 33% 0.00in /  0mm 617.0 W/m2
10:42 69.8 °F /  21 °C 39.4 °F /  4.1 °C 30.30in /  1026hPa NNW 4.0mph /  6.4km/h 7.0mph /  11.3km/h 33% 0.00in /  0mm 621.0 W/m2
10:49 70.2 °F /  21.2 °C 39.7 °F /  4.3 °C 30.30in /  1026hPa WNW 0.9mph /  1.4km/h 8.0mph /  12.9km/h 33% 0.00in /  0mm 633.0 W/m2
10:55 70.3 °F /  21.3 °C 40.6 °F /  4.8 °C 30.29in /  1025.6hPa North 6.0mph /  9.7km/h 9.0mph /  14.5km/h 34% 0.00in /  0mm 635.0 W/m2
11:01 70.5 °F /  21.4 °C 40.1 °F /  4.5 °C 30.29in /  1025.6hPa North 2.9mph /  4.7km/h 4.0mph /  6.4km/h 33% 0.00in /  0mm 638.0 W/m2
11:07 70.9 °F /  21.6 °C 40.3 °F /  4.6 °C 30.29in /  1025.6hPa North 4.0mph /  6.4km/h 7.0mph /  11.3km/h 33% 0.00in /  0mm 643.0 W/m2
11:13 71.1 °F /  21.7 °C 40.5 °F /  4.7 °C 30.29in /  1025.6hPa SW 0.9mph /  1.4km/h 7.0mph /  11.3km/h 33% 0.00in /  0mm 649.0 W/m2
11:19 71.1 °F /  21.7 °C 39.7 °F /  4.3 °C 30.28in /  1025.3hPa Calm   6.0mph /  9.7km/h 32% 0.00in /  0mm 650.0 W/m2
11:25 71.2 °F /  21.8 °C 40.6 °F /  4.8 °C 30.28in /  1025.3hPa NNW 0.9mph /  1.4km/h 7.0mph /  11.3km/h 33% 0.00in /  0mm 656.0 W/m2
11:32 71.4 °F /  21.9 °C 40.1 °F /  4.5 °C 30.28in /  1025.3hPa West 0.9mph /  1.4km/h 4.0mph /  6.4km/h 32% 0.00in /  0mm 652.0 W/m2
11:38 71.4 °F /  21.9 °C 40.1 °F /  4.5 °C 30.27in /  1024.9hPa NNW 0.9mph /  1.4km/h 5.0mph /  8km/h 32% 0.00in /  0mm 654.0 W/m2
11:44 72.0 °F /  22.2 °C 40.5 °F /  4.7 °C 30.27in /  1024.9hPa NNW 6.9mph /  11.1km/h 9.0mph /  14.5km/h 32% 0.00in /  0mm 670.0 W/m2
11:50 72.1 °F /  22.3 °C 40.6 °F /  4.8 °C 30.27in /  1024.9hPa Calm   9.0mph /  14.5km/h 32% 0.00in /  0mm 675.0 W/m2
11:56 72.1 °F /  22.3 °C 40.6 °F /  4.8 °C 30.27in /  1024.9hPa Calm   3.0mph /  4.8km/h 32% 0.00in /  0mm 487.0 W/m2
12:02 72.1 °F /  22.3 °C 40.6 °F /  4.8 °C 30.26in /  1024.6hPa Calm   7.0mph /  11.3km/h 32% 0.00in /  0mm 659.0 W/m2
12:08 72.1 °F /  22.3 °C 40.6 °F /  4.8 °C 30.26in /  1024.6hPa North 4.0mph /  6.4km/h 8.0mph /  12.9km/h 32% 0.00in /  0mm 652.0 W/m2
12:14 72.3 °F /  22.4 °C 39.9 °F /  4.4 °C 30.26in /  1024.6hPa North 2.9mph /  4.7km/h 7.0mph /  11.3km/h 31% 0.00in /  0mm 650.0 W/m2
12:20 72.3 °F /  22.4 °C 39.9 °F /  4.4 °C 30.26in /  1024.6hPa Calm   6.0mph /  9.7km/h 31% 0.00in /  0mm 649.0 W/m2
12:26 72.7 °F /  22.6 °C 41.2 °F /  5.1 °C 30.25in /  1024.3hPa North 0.9mph /  1.4km/h 2.0mph /  3.2km/h 32% 0.00in /  0mm 649.0 W/m2
12:32 72.7 °F /  22.6 °C 41.2 °F /  5.1 °C 30.25in /  1024.3hPa NW 6.0mph /  9.7km/h 7.0mph /  11.3km/h 32% 0.00in /  0mm 645.0 W/m2
12:38 72.9 °F /  22.7 °C 40.5 °F /  4.7 °C 30.25in /  1024.3hPa North 6.0mph /  9.7km/h 8.0mph /  12.9km/h 31% 0.00in /  0mm 636.0 W/m2
12:44 72.7 °F /  22.6 °C 41.2 °F /  5.1 °C 30.24in /  1023.9hPa Calm   7.0mph /  11.3km/h 32% 0.00in /  0mm 635.0 W/m2
12:50 72.9 °F /  22.7 °C 40.5 °F /  4.7 °C 30.24in /  1023.9hPa North 4.0mph /  6.4km/h 4.0mph /  6.4km/h 31% 0.00in /  0mm 631.0 W/m2
12:57 72.9 °F /  22.7 °C 40.5 °F /  4.7 °C 30.24in /  1023.9hPa West 0.9mph /  1.4km/h 3.0mph /  4.8km/h 31% 0.00in /  0mm 624.0 W/m2
13:03 72.9 °F /  22.7 °C 40.5 °F /  4.7 °C 30.24in /  1023.9hPa North 2.9mph /  4.7km/h 4.0mph /  6.4km/h 31% 0.00in /  0mm 619.0 W/m2
13:09 73.0 °F /  22.8 °C 40.6 °F /  4.8 °C 30.23in /  1023.6hPa Calm   7.0mph /  11.3km/h 31% 0.00in /  0mm 628.0 W/m2
13:15 73.2 °F /  22.9 °C 40.8 °F /  4.9 °C 30.23in /  1023.6hPa NW 0.9mph /  1.4km/h 6.0mph /  9.7km/h 31% 0.00in /  0mm 257.0 W/m2
13:21 72.9 °F /  22.7 °C 41.4 °F /  5.2 °C 30.23in /  1023.6hPa WNW 2.0mph /  3.2km/h 7.0mph /  11.3km/h 32% 0.00in /  0mm 656.0 W/m2
13:27 72.9 °F /  22.7 °C 40.5 °F /  4.7 °C 30.23in /  1023.6hPa Calm   8.0mph /  12.9km/h 31% 0.00in /  0mm 626.0 W/m2
13:33 72.9 °F /  22.7 °C 41.4 °F /  5.2 °C 30.23in /  1023.6hPa WNW 2.0mph /  3.2km/h 7.0mph /  11.3km/h 32% 0.00in /  0mm 628.0 W/m2
13:39 72.3 °F /  22.4 °C 39.9 °F /  4.4 °C 30.22in /  1023.2hPa North 4.0mph /  6.4km/h 8.0mph /  12.9km/h 31% 0.00in /  0mm 612.0 W/m2
13:45 72.3 °F /  22.4 °C 40.8 °F /  4.9 °C 30.22in /  1023.2hPa WSW 0.9mph /  1.4km/h 3.0mph /  4.8km/h 32% 0.00in /  0mm 592.0 W/m2
13:51 72.5 °F /  22.5 °C 40.1 °F /  4.5 °C 30.22in /  1023.2hPa Calm   2.0mph /  3.2km/h 31% 0.00in /  0mm 77.0 W/m2
13:57 72.1 °F /  22.3 °C 40.6 °F /  4.8 °C 30.22in /  1023.2hPa Calm   3.0mph /  4.8km/h 32% 0.00in /  0mm 563.0 W/m2
14:03 72.1 °F /  22.3 °C 40.6 °F /  4.8 °C 30.21in /  1022.9hPa Calm   2.0mph /  3.2km/h 32% 0.00in /  0mm 540.0 W/m2
14:09 72.3 °F /  22.4 °C 40.8 °F /  4.9 °C 30.21in /  1022.9hPa Calm   3.0mph /  4.8km/h 32% 0.00in /  0mm 490.0 W/m2
14:15 72.0 °F /  22.2 °C 40.5 °F /  4.7 °C 30.21in /  1022.9hPa North 0.9mph /  1.4km/h 5.0mph /  8km/h 32% 0.00in /  0mm 128.0 W/m2
14:21 71.4 °F /  21.9 °C 40.1 °F /  4.5 °C 30.21in /  1022.9hPa NW 0.9mph /  1.4km/h 3.0mph /  4.8km/h 32% 0.00in /  0mm 561.0 W/m2
14:27 72.0 °F /  22.2 °C 39.7 °F /  4.3 °C 30.21in /  1022.9hPa NNW 0.9mph /  1.4km/h 5.0mph /  8km/h 31% 0.00in /  0mm 540.0 W/m2
14:33 72.3 °F /  22.4 °C 39.2 °F /  4 °C 30.21in /  1022.9hPa Calm   3.0mph /  4.8km/h 30% 0.00in /  0mm 501.0 W/m2
14:39 72.5 °F /  22.5 °C 39.4 °F /  4.1 °C 30.21in /  1022.9hPa WNW 0.9mph /  1.4km/h 5.0mph /  8km/h 30% 0.00in /  0mm 76.0 W/m2
14:45 72.0 °F /  22.2 °C 39.7 °F /  4.3 °C 30.21in /  1022.9hPa Calm   3.0mph /  4.8km/h 31% 0.00in /  0mm 51.0 W/m2
14:52 71.4 °F /  21.9 °C 40.1 °F /  4.5 °C 30.21in /  1022.9hPa Calm   2.0mph /  3.2km/h 32% 0.00in /  0mm 58.0 W/m2
14:57 70.7 °F /  21.5 °C 39.4 °F /  4.1 °C 30.21in /  1022.9hPa North 2.0mph /  3.2km/h 4.0mph /  6.4km/h 32% 0.00in /  0mm 63.0 W/m2
15:05 70.2 °F /  21.2 °C 38.8 °F /  3.8 °C 30.21in /  1022.9hPa Calm   2.0mph /  3.2km/h 32% 0.00in /  0mm 91.0 W/m2
15:11 70.0 °F /  21.1 °C 38.8 °F /  3.8 °C 30.21in /  1022.9hPa Calm   1.0mph /  1.6km/h 32% 0.00in /  0mm 91.0 W/m2
15:17 70.0 °F /  21.1 °C 38.8 °F /  3.8 °C 30.21in /  1022.9hPa Calm   2.0mph /  3.2km/h 32% 0.00in /  0mm 95.0 W/m2
15:24 69.8 °F /  21 °C 40.1 °F /  4.5 °C 30.21in /  1022.9hPa Calm   2.0mph /  3.2km/h 34% 0.00in /  0mm 88.0 W/m2
15:30 69.6 °F /  20.9 °C 39.2 °F /  4 °C 30.21in /  1022.9hPa West 0.9mph /  1.4km/h 1.0mph /  1.6km/h 33% 0.00in /  0mm 63.0 W/m2
15:36 69.4 °F /  20.8 °C 39.0 °F /  3.9 °C 30.21in /  1022.9hPa Calm   1.0mph /  1.6km/h 33% 0.00in /  0mm 62.0 W/m2
15:42 69.4 °F /  20.8 °C 39.9 °F /  4.4 °C 30.21in /  1022.9hPa West 0.9mph /  1.4km/h 2.0mph /  3.2km/h 34% 0.00in /  0mm 49.0 W/m2
15:48 69.1 °F /  20.6 °C 39.6 °F /  4.2 °C 30.21in /  1022.9hPa Calm   3.0mph /  4.8km/h 34% 0.00in /  0mm 32.0 W/m2
15:54 68.9 °F /  20.5 °C 38.7 °F /  3.7 °C 30.21in /  1022.9hPa WSW 2.9mph /  4.7km/h 7.0mph /  11.3km/h 33% 0.00in /  0mm 37.0 W/m2
16:00 69.1 °F /  20.6 °C 38.8 °F /  3.8 °C 30.21in /  1022.9hPa Calm   1.0mph /  1.6km/h 33% 0.00in /  0mm 33.0 W/m2
16:06 69.1 °F /  20.6 °C 38.8 °F /  3.8 °C 30.21in /  1022.9hPa Calm   2.0mph /  3.2km/h 33% 0.00in /  0mm 32.0 W/m2
16:12 69.1 °F /  20.6 °C 38.8 °F /  3.8 °C 30.21in /  1022.9hPa Calm   2.0mph /  3.2km/h 33% 0.00in /  0mm 33.0 W/m2
16:18 69.1 °F /  20.6 °C 38.8 °F /  3.8 °C 30.22in /  1023.2hPa Calm   2.0mph /  3.2km/h 33% 0.00in /  0mm 33.0 W/m2
16:24 69.1 °F /  20.6 °C 37.9 °F /  3.3 °C 30.22in /  1023.2hPa Calm   3.0mph /  4.8km/h 32% 0.00in /  0mm 33.0 W/m2
16:30 68.9 °F /  20.5 °C 38.7 °F /  3.7 °C 30.22in /  1023.2hPa WSW 0.9mph /  1.4km/h 3.0mph /  4.8km/h 33% 0.00in /  0mm 39.0 W/m2
16:36 68.7 °F /  20.4 °C 38.5 °F /  3.6 °C 30.22in /  1023.2hPa Calm   1.0mph /  1.6km/h 33% 0.00in /  0mm 37.0 W/m2
16:42 68.5 °F /  20.3 °C 39.0 °F /  3.9 °C 30.22in /  1023.2hPa Calm   1.0mph /  1.6km/h 34% 0.00in /  0mm 37.0 W/m2
16:48 68.4 °F /  20.2 °C 38.8 °F /  3.8 °C 30.22in /  1023.2hPa WSW 0.9mph /  1.4km/h 1.0mph /  1.6km/h 34% 0.00in /  0mm 23.0 W/m2
16:54 68.2 °F /  20.1 °C 38.7 °F /  3.7 °C 30.22in /  1023.2hPa WSW 0.9mph /  1.4km/h 1.0mph /  1.6km/h 34% 0.00in /  0mm 14.0 W/m2
17:00 67.8 °F /  19.9 °C 38.5 °F /  3.6 °C 30.23in /  1023.6hPa Calm     34% 0.00in /  0mm 9.0 W/m2
17:06 67.5 °F /  19.7 °C 38.8 °F /  3.8 °C 30.22in /  1023.2hPa Calm     35% 0.00in /  0mm 7.0 W/m2
17:12 66.9 °F /  19.4 °C 38.3 °F /  3.5 °C 30.23in /  1023.6hPa Calm     35% 0.00in /  0mm 0.0 W/m2
17:18 66.6 °F /  19.2 °C 39.6 °F /  4.2 °C 30.23in /  1023.6hPa Calm     37% 0.00in /  0mm 0.0 W/m2
17:24 66.0 °F /  18.9 °C 39.0 °F /  3.9 °C 30.23in /  1023.6hPa Calm     37% 0.00in /  0mm 0.0 W/m2
17:30 65.3 °F /  18.5 °C 39.0 °F /  3.9 °C 30.23in /  1023.6hPa Calm     38% 0.00in /  0mm 0.0 W/m2
17:36 64.6 °F /  18.1 °C 39.0 °F /  3.9 °C 30.24in /  1023.9hPa Calm     39% 0.00in /  0mm 0.0 W/m2
17:42 63.9 °F /  17.7 °C 39.0 °F /  3.9 °C 30.24in /  1023.9hPa Calm     40% 0.00in /  0mm 0.0 W/m2
17:48 63.1 °F /  17.3 °C 38.5 °F /  3.6 °C 30.24in /  1023.9hPa Calm     40% 0.00in /  0mm 0.0 W/m2
17:54 62.4 °F /  16.9 °C 38.5 °F /  3.6 °C 30.24in /  1023.9hPa Calm     41% 0.00in /  0mm 0.0 W/m2
18:00 61.9 °F /  16.6 °C 38.5 °F /  3.6 °C 30.24in /  1023.9hPa Calm     42% 0.00in /  0mm 0.0 W/m2
18:06 61.5 °F /  16.4 °C 38.8 °F /  3.8 °C 30.24in /  1023.9hPa Calm     43% 0.00in /  0mm 0.0 W/m2
18:12 61.0 °F /  16.1 °C 38.3 °F /  3.5 °C 30.24in /  1023.9hPa Calm     43% 0.00in /  0mm 0.0 W/m2
18:18 60.4 °F /  15.8 °C 38.5 °F /  3.6 °C 30.25in /  1024.3hPa Calm     44% 0.00in /  0mm 0.0 W/m2
18:24 59.9 °F /  15.5 °C 37.9 °F /  3.3 °C 30.25in /  1024.3hPa Calm     44% 0.00in /  0mm 0.0 W/m2
18:30 59.4 °F /  15.2 °C 37.9 °F /  3.3 °C 30.25in /  1024.3hPa Calm     45% 0.00in /  0mm 0.0 W/m2
18:36 58.8 °F /  14.9 °C 37.6 °F /  3.1 °C 30.25in /  1024.3hPa Calm     45% 0.00in /  0mm 0.0 W/m2
18:42 58.5 °F /  14.7 °C 37.8 °F /  3.2 °C 30.26in /  1024.6hPa Calm     46% 0.00in /  0mm 0.0 W/m2
18:48 57.9 °F /  14.4 °C 37.8 °F /  3.2 °C 30.26in /  1024.6hPa Calm     47% 0.00in /  0mm 0.0 W/m2
18:54 57.4 °F /  14.1 °C 37.4 °F /  3 °C 30.26in /  1024.6hPa Calm     47% 0.00in /  0mm 0.0 W/m2
19:00 57.0 °F /  13.9 °C 37.6 °F /  3.1 °C 30.26in /  1024.6hPa Calm     48% 0.00in /  0mm 0.0 W/m2
19:06 56.7 °F /  13.7 °C 37.2 °F /  2.9 °C 30.26in /  1024.6hPa Calm     48% 0.00in /  0mm 0.0 W/m2
19:14 56.1 °F /  13.4 °C 37.2 °F /  2.9 °C 30.27in /  1024.9hPa Calm   1.0mph /  1.6km/h 49% 0.00in /  0mm 0.0 W/m2
19:20 55.9 °F /  13.3 °C 37.0 °F /  2.8 °C 30.27in /  1024.9hPa Calm     49% 0.00in /  0mm 0.0 W/m2
19:26 55.8 °F /  13.2 °C 36.9 °F /  2.7 °C 30.27in /  1024.9hPa Calm     49% 0.00in /  0mm 0.0 W/m2
19:32 55.8 °F /  13.2 °C 36.9 °F /  2.7 °C 30.28in /  1025.3hPa Calm     49% 0.00in /  0mm 0.0 W/m2
19:38 55.6 °F /  13.1 °C 36.7 °F /  2.6 °C 30.28in /  1025.3hPa Calm     49% 0.00in /  0mm 0.0 W/m2
19:44 55.2 °F /  12.9 °C 36.9 °F /  2.7 °C 30.28in /  1025.3hPa Calm     50% 0.00in /  0mm 0.0 W/m2
19:50 54.9 °F /  12.7 °C 36.5 °F /  2.5 °C 30.28in /  1025.3hPa Calm     50% 0.00in /  0mm 0.0 W/m2
19:56 54.9 °F /  12.7 °C 37.0 °F /  2.8 °C 30.28in /  1025.3hPa Calm   2.0mph /  3.2km/h 51% 0.00in /  0mm 0.0 W/m2
20:02 54.7 °F /  12.6 °C 36.9 °F /  2.7 °C 30.28in /  1025.3hPa Calm     51% 0.00in /  0mm 0.0 W/m2
20:08 54.9 °F /  12.7 °C 37.0 °F /  2.8 °C 30.28in /  1025.3hPa Calm   1.0mph /  1.6km/h 51% 0.00in /  0mm 0.0 W/m2
20:14 55.0 °F /  12.8 °C 36.7 °F /  2.6 °C 30.28in /  1025.3hPa Calm     50% 0.00in /  0mm 0.0 W/m2
20:21 55.0 °F /  12.8 °C 36.7 °F /  2.6 °C 30.29in /  1025.6hPa Calm     50% 0.00in /  0mm 0.0 W/m2
20:26 55.0 °F /  12.8 °C 36.7 °F /  2.6 °C 30.29in /  1025.6hPa Calm     50% 0.00in /  0mm 0.0 W/m2
20:32 54.9 °F /  12.7 °C 36.5 °F /  2.5 °C 30.29in /  1025.6hPa SE 0.9mph /  1.4km/h 2.0mph /  3.2km/h 50% 0.00in /  0mm 0.0 W/m2
20:38 54.9 °F /  12.7 °C 37.0 °F /  2.8 °C 30.29in /  1025.6hPa Calm   4.0mph /  6.4km/h 51% 0.00in /  0mm 0.0 W/m2
20:45 54.9 °F /  12.7 °C 36.5 °F /  2.5 °C 30.30in /  1026hPa Calm   2.0mph /  3.2km/h 50% 0.00in /  0mm 0.0 W/m2
20:51 54.7 °F /  12.6 °C 36.9 °F /  2.7 °C 30.30in /  1026hPa Calm   1.0mph /  1.6km/h 51% 0.00in /  0mm 0.0 W/m2
20:56 54.5 °F /  12.5 °C 36.7 °F /  2.6 °C 30.30in /  1026hPa Calm     51% 0.00in /  0mm 0.0 W/m2
21:02 54.3 °F /  12.4 °C 36.5 °F /  2.5 °C 30.30in /  1026hPa Calm     51% 0.00in /  0mm 0.0 W/m2
21:08 54.1 °F /  12.3 °C 36.9 °F /  2.7 °C 30.30in /  1026hPa Calm     52% 0.00in /  0mm 0.0 W/m2
21:17 53.8 °F /  12.1 °C 36.5 °F /  2.5 °C 30.30in /  1026hPa Calm     52% 0.00in /  0mm 0.0 W/m2
21:23 53.4 °F /  11.9 °C 36.3 °F /  2.4 °C 30.31in /  1026.3hPa ENE 2.0mph /  3.2km/h 3.0mph /  4.8km/h 52% 0.00in /  0mm 0.0 W/m2
21:29 53.2 °F /  11.8 °C 36.5 °F /  2.5 °C 30.31in /  1026.3hPa Calm     53% 0.00in /  0mm 0.0 W/m2
21:35 53.2 °F /  11.8 °C 36.5 °F /  2.5 °C 30.31in /  1026.3hPa Calm     53% 0.00in /  0mm 0.0 W/m2
21:47 53.1 °F /  11.7 °C 36.9 °F /  2.7 °C 30.31in /  1026.3hPa Calm     54% 0.00in /  0mm 0.0 W/m2
21:53 53.1 °F /  11.7 °C 36.9 °F /  2.7 °C 30.31in /  1026.3hPa Calm     54% 0.00in /  0mm 0.0 W/m2
21:59 52.9 °F /  11.6 °C 36.7 °F /  2.6 °C 30.31in /  1026.3hPa Calm     54% 0.00in /  0mm 0.0 W/m2
22:05 52.5 °F /  11.4 °C 36.9 °F /  2.7 °C 30.31in /  1026.3hPa Calm     55% 0.00in /  0mm 0.0 W/m2
22:11 52.3 °F /  11.3 °C 36.7 °F /  2.6 °C 30.30in /  1026hPa Calm     55% 0.00in /  0mm 0.0 W/m2
22:17 52.0 °F /  11.1 °C 36.3 °F /  2.4 °C 30.31in /  1026.3hPa Calm     55% 0.00in /  0mm 0.0 W/m2
22:23 51.6 °F /  10.9 °C 36.5 °F /  2.5 °C 30.31in /  1026.3hPa Calm   1.0mph /  1.6km/h 56% 0.00in /  0mm 0.0 W/m2
22:29 51.4 °F /  10.8 °C 36.7 °F /  2.6 °C 30.31in /  1026.3hPa East 2.0mph /  3.2km/h 2.0mph /  3.2km/h 57% 0.00in /  0mm 0.0 W/m2
22:35 51.3 °F /  10.7 °C 36.5 °F /  2.5 °C 30.31in /  1026.3hPa Calm   2.0mph /  3.2km/h 57% 0.00in /  0mm 0.0 W/m2
22:41 51.3 °F /  10.7 °C 36.5 °F /  2.5 °C 30.31in /  1026.3hPa Calm   1.0mph /  1.6km/h 57% 0.00in /  0mm 0.0 W/m2
22:47 51.3 °F /  10.7 °C 36.5 °F /  2.5 °C 30.31in /  1026.3hPa Calm   1.0mph /  1.6km/h 57% 0.00in /  0mm 0.0 W/m2
22:53 51.3 °F /  10.7 °C 36.5 °F /  2.5 °C 30.31in /  1026.3hPa Calm   1.0mph /  1.6km/h 57% 0.00in /  0mm 0.0 W/m2
22:59 51.4 °F /  10.8 °C 36.7 °F /  2.6 °C 30.31in /  1026.3hPa East 0.9mph /  1.4km/h 1.0mph /  1.6km/h 57% 0.00in /  0mm 0.0 W/m2
23:05 51.4 °F /  10.8 °C 36.3 °F /  2.4 °C 30.31in /  1026.3hPa Calm     56% 0.00in /  0mm 0.0 W/m2
23:12 51.4 °F /  10.8 °C 36.3 °F /  2.4 °C 30.31in /  1026.3hPa Calm     56% 0.00in /  0mm 0.0 W/m2
23:13 51.4 °F /  10.8 °C 36.3 °F /  2.4 °C 30.31in /  1026.3hPa Calm     56% 0.00in /  0mm 0.0 W/m2
23:20 51.3 °F /  10.7 °C 36.5 °F /  2.5 °C 30.31in /  1026.3hPa Calm     57% 0.00in /  0mm 0.0 W/m2
23:26 51.1 °F /  10.6 °C 36.9 °F /  2.7 °C 30.31in /  1026.3hPa Calm   2.0mph /  3.2km/h 58% 0.00in /  0mm 0.0 W/m2
23:32 51.1 °F /  10.6 °C 36.9 °F /  2.7 °C 30.31in /  1026.3hPa Calm   1.0mph /  1.6km/h 58% 0.00in /  0mm 0.0 W/m2
23:38 51.1 °F /  10.6 °C 36.9 °F /  2.7 °C 30.31in /  1026.3hPa Calm     58% 0.00in /  0mm 0.0 W/m2
23:44 50.9 °F /  10.5 °C 36.7 °F /  2.6 °C 30.31in /  1026.3hPa Calm     58% 0.00in /  0mm 0.0 W/m2
23:50 50.7 °F /  10.4 °C 36.5 °F /  2.5 °C 30.31in /  1026.3hPa Calm     58% 0.00in /  0mm 0.0 W/m2
23:56 50.5 °F /  10.3 °C 36.7 °F /  2.6 °C 30.31in /  1026.3hPa Calm     59% 0.00in /  0mm 0.0 W/m2
Olympia, Windhoek, Namibia
Compliments of Weather Underground - 3 mb